sensor_id;sensor_type;location;lat;lon;timestamp;temperature;humidity
47576;DHT22;33304;52.456;13.328;2023-03-23T00:01:07;12.30;26.10
47576;DHT22;33304;52.456;13.328;2023-03-23T00:03:36;12.20;26.50
47576;DHT22;33304;52.456;13.328;2023-03-23T00:06:04;12.20;26.30
47576;DHT22;33304;52.456;13.328;2023-03-23T00:08:34;12.20;27.10
47576;DHT22;33304;52.456;13.328;2023-03-23T00:11:03;12.10;26.70
47576;DHT22;33304;52.456;13.328;2023-03-23T00:13:31;12.10;26.70
47576;DHT22;33304;52.456;13.328;2023-03-23T00:15:58;12.10;26.80
47576;DHT22;33304;52.456;13.328;2023-03-23T00:18:25;12.10;27.00
47576;DHT22;33304;52.456;13.328;2023-03-23T00:20:54;12.10;27.00
47576;DHT22;33304;52.456;13.328;2023-03-23T00:23:24;12.00;27.10
47576;DHT22;33304;52.456;13.328;2023-03-23T00:25:54;11.90;27.40
47576;DHT22;33304;52.456;13.328;2023-03-23T00:28:23;11.90;27.50
47576;DHT22;33304;52.456;13.328;2023-03-23T00:30:56;11.90;27.50
47576;DHT22;33304;52.456;13.328;2023-03-23T00:33:24;11.80;27.60
47576;DHT22;33304;52.456;13.328;2023-03-23T00:35:52;11.90;27.50
47576;DHT22;33304;52.456;13.328;2023-03-23T00:38:20;11.80;27.50
47576;DHT22;33304;52.456;13.328;2023-03-23T00:40:47;11.90;27.30
47576;DHT22;33304;52.456;13.328;2023-03-23T00:43:18;11.90;27.50
47576;DHT22;33304;52.456;13.328;2023-03-23T00:45:45;11.80;27.30
47576;DHT22;33304;52.456;13.328;2023-03-23T00:48:18;11.90;27.40
47576;DHT22;33304;52.456;13.328;2023-03-23T00:50:45;11.80;27.40
47576;DHT22;33304;52.456;13.328;2023-03-23T00:53:13;11.70;27.50
47576;DHT22;33304;52.456;13.328;2023-03-23T00:55:40;11.80;27.80
47576;DHT22;33304;52.456;13.328;2023-03-23T00:58:08;11.70;27.60
47576;DHT22;33304;52.456;13.328;2023-03-23T01:00:38;11.70;27.30
47576;DHT22;33304;52.456;13.328;2023-03-23T01:03:06;11.70;27.40
47576;DHT22;33304;52.456;13.328;2023-03-23T01:05:34;11.70;27.50
47576;DHT22;33304;52.456;13.328;2023-03-23T01:08:01;11.60;27.80
47576;DHT22;33304;52.456;13.328;2023-03-23T01:10:30;11.60;27.80
47576;DHT22;33304;52.456;13.328;2023-03-23T01:12:59;11.60;27.80
47576;DHT22;33304;52.456;13.328;2023-03-23T01:15:27;11.60;27.80
47576;DHT22;33304;52.456;13.328;2023-03-23T01:17:56;11.60;27.80
47576;DHT22;33304;52.456;13.328;2023-03-23T01:20:24;11.50;28.00
47576;DHT22;33304;52.456;13.328;2023-03-23T01:22:53;11.50;27.80
47576;DHT22;33304;52.456;13.328;2023-03-23T01:25:27;11.50;28.00
47576;DHT22;33304;52.456;13.328;2023-03-23T01:27:54;11.40;28.00
47576;DHT22;33304;52.456;13.328;2023-03-23T01:30:22;11.50;28.00
47576;DHT22;33304;52.456;13.328;2023-03-23T01:32:50;11.40;28.20
47576;DHT22;33304;52.456;13.328;2023-03-23T01:35:18;11.40;28.30
47576;DHT22;33304;52.456;13.328;2023-03-23T01:37:46;11.40;28.40
47576;DHT22;33304;52.456;13.328;2023-03-23T01:40:14;11.40;28.50
47576;DHT22;33304;52.456;13.328;2023-03-23T01:42:43;11.30;28.70
47576;DHT22;33304;52.456;13.328;2023-03-23T01:45:29;11.30;28.20
47576;DHT22;33304;52.456;13.328;2023-03-23T01:48:05;11.30;28.20
47576;DHT22;33304;52.456;13.328;2023-03-23T01:50:39;11.40;28.30
47576;DHT22;33304;52.456;13.328;2023-03-23T01:53:08;11.40;27.90
47576;DHT22;33304;52.456;13.328;2023-03-23T01:55:39;11.50;27.80
47576;DHT22;33304;52.456;13.328;2023-03-23T01:58:08;11.60;27.50
47576;DHT22;33304;52.456;13.328;2023-03-23T02:00:37;11.60;27.60
47576;DHT22;33304;52.456;13.328;2023-03-23T02:03:06;11.60;27.50
47576;DHT22;33304;52.456;13.328;2023-03-23T02:05:39;11.60;27.40
47576;DHT22;33304;52.456;13.328;2023-03-23T02:08:14;11.60;27.10
47576;DHT22;33304;52.456;13.328;2023-03-23T02:10:42;11.70;27.00
47576;DHT22;33304;52.456;13.328;2023-03-23T02:13:10;11.70;26.80
47576;DHT22;33304;52.456;13.328;2023-03-23T02:15:47;11.70;26.60
47576;DHT22;33304;52.456;13.328;2023-03-23T02:18:25;11.60;26.90
47576;DHT22;33304;52.456;13.328;2023-03-23T02:21:29;11.60;27.00
47576;DHT22;33304;52.456;13.328;2023-03-23T02:24:21;11.70;26.80
47576;DHT22;33304;52.456;13.328;2023-03-23T02:26:58;11.60;26.60
47576;DHT22;33304;52.456;13.328;2023-03-23T02:32:33;11.70;26.50
47576;DHT22;33304;52.456;13.328;2023-03-23T02:35:08;11.80;26.60
47576;DHT22;33304;52.456;13.328;2023-03-23T02:37:42;11.80;26.30
47576;DHT22;33304;52.456;13.328;2023-03-23T02:40:15;11.70;26.50
47576;DHT22;33304;52.456;13.328;2023-03-23T02:42:48;11.70;26.40
47576;DHT22;33304;52.456;13.328;2023-03-23T02:45:17;11.70;26.50
47576;DHT22;33304;52.456;13.328;2023-03-23T02:47:49;11.80;27.40
47576;DHT22;33304;52.456;13.328;2023-03-23T02:50:22;11.60;28.30
47576;DHT22;33304;52.456;13.328;2023-03-23T02:52:52;11.60;29.30
47576;DHT22;33304;52.456;13.328;2023-03-23T02:55:21;11.50;30.20
47576;DHT22;33304;52.456;13.328;2023-03-23T02:57:51;11.50;30.70
47576;DHT22;33304;52.456;13.328;2023-03-23T03:00:20;11.60;29.90
47576;DHT22;33304;52.456;13.328;2023-03-23T03:02:48;11.50;30.40
47576;DHT22;33304;52.456;13.328;2023-03-23T03:05:26;11.50;31.00
47576;DHT22;33304;52.456;13.328;2023-03-23T03:08:04;11.40;30.90
47576;DHT22;33304;52.456;13.328;2023-03-23T03:10:37;11.40;32.10
47576;DHT22;33304;52.456;13.328;2023-03-23T03:13:13;11.50;31.30
47576;DHT22;33304;52.456;13.328;2023-03-23T03:15:45;11.50;31.10
47576;DHT22;33304;52.456;13.328;2023-03-23T03:18:18;11.50;30.70
47576;DHT22;33304;52.456;13.328;2023-03-23T03:20:50;11.50;30.80
47576;DHT22;33304;52.456;13.328;2023-03-23T03:23:22;11.50;30.80
47576;DHT22;33304;52.456;13.328;2023-03-23T03:25:53;11.60;31.00
47576;DHT22;33304;52.456;13.328;2023-03-23T03:28:30;11.50;30.40
47576;DHT22;33304;52.456;13.328;2023-03-23T03:31:01;11.50;30.40
47576;DHT22;33304;52.456;13.328;2023-03-23T03:33:30;11.50;30.20
47576;DHT22;33304;52.456;13.328;2023-03-23T03:36:03;11.70;29.70
47576;DHT22;33304;52.456;13.328;2023-03-23T03:38:41;11.60;30.00
47576;DHT22;33304;52.456;13.328;2023-03-23T03:41:08;11.60;30.00
47576;DHT22;33304;52.456;13.328;2023-03-23T03:43:35;11.60;29.90
47576;DHT22;33304;52.456;13.328;2023-03-23T03:46:04;11.60;29.80
47576;DHT22;33304;52.456;13.328;2023-03-23T03:48:32;11.60;29.80
47576;DHT22;33304;52.456;13.328;2023-03-23T03:51:01;11.60;30.20
47576;DHT22;33304;52.456;13.328;2023-03-23T03:53:31;11.50;31.70
47576;DHT22;33304;52.456;13.328;2023-03-23T03:55:58;11.50;31.20
47576;DHT22;33304;52.456;13.328;2023-03-23T03:58:32;11.50;31.40
47576;DHT22;33304;52.456;13.328;2023-03-23T04:01:11;11.50;32.20
47576;DHT22;33304;52.456;13.328;2023-03-23T04:03:40;11.50;31.90
47576;DHT22;33304;52.456;13.328;2023-03-23T04:06:37;11.60;31.40
47576;DHT22;33304;52.456;13.328;2023-03-23T04:09:05;11.70;31.80
47576;DHT22;33304;52.456;13.328;2023-03-23T04:11:34;11.50;32.90
47576;DHT22;33304;52.456;13.328;2023-03-23T04:14:36;11.50;32.90
47576;DHT22;33304;52.456;13.328;2023-03-23T04:17:03;11.40;32.80
47576;DHT22;33304;52.456;13.328;2023-03-23T04:19:32;11.40;32.80
47576;DHT22;33304;52.456;13.328;2023-03-23T04:22:03;11.50;32.90
47576;DHT22;33304;52.456;13.328;2023-03-23T04:24:33;11.60;32.40
47576;DHT22;33304;52.456;13.328;2023-03-23T04:27:01;11.70;33.10
47576;DHT22;33304;52.456;13.328;2023-03-23T04:29:29;11.50;32.90
47576;DHT22;33304;52.456;13.328;2023-03-23T04:32:15;11.50;32.90
47576;DHT22;33304;52.456;13.328;2023-03-23T04:34:48;11.50;32.90
47576;DHT22;33304;52.456;13.328;2023-03-23T04:37:17;11.40;32.80
47576;DHT22;33304;52.456;13.328;2023-03-23T04:39:44;11.40;33.50
47576;DHT22;33304;52.456;13.328;2023-03-23T04:42:13;11.40;33.20
47576;DHT22;33304;52.456;13.328;2023-03-23T04:45:14;11.40;33.80
47576;DHT22;33304;52.456;13.328;2023-03-23T04:47:42;11.50;33.80
47576;DHT22;33304;52.456;13.328;2023-03-23T04:50:21;11.50;33.60
47576;DHT22;33304;52.456;13.328;2023-03-23T04:52:51;11.50;32.90
47576;DHT22;33304;52.456;13.328;2023-03-23T04:55:20;11.50;33.10
47576;DHT22;33304;52.456;13.328;2023-03-23T04:57:54;11.50;32.90
47576;DHT22;33304;52.456;13.328;2023-03-23T05:00:43;11.70;33.10
47576;DHT22;33304;52.456;13.328;2023-03-23T05:03:16;11.60;33.00
47576;DHT22;33304;52.456;13.328;2023-03-23T05:05:45;11.50;34.30
47576;DHT22;33304;52.456;13.328;2023-03-23T05:08:19;11.40;36.90
47576;DHT22;33304;52.456;13.328;2023-03-23T05:10:50;11.40;37.40
47576;DHT22;33304;52.456;13.328;2023-03-23T05:13:19;11.20;39.70
47576;DHT22;33304;52.456;13.328;2023-03-23T05:15:50;10.90;41.30
47576;DHT22;33304;52.456;13.328;2023-03-23T05:18:17;10.80;43.90
47576;DHT22;33304;52.456;13.328;2023-03-23T05:20:46;10.70;44.70
47576;DHT22;33304;52.456;13.328;2023-03-23T05:23:19;10.70;46.50
47576;DHT22;33304;52.456;13.328;2023-03-23T05:25:55;10.60;46.50
47576;DHT22;33304;52.456;13.328;2023-03-23T05:28:23;10.60;47.60
47576;DHT22;33304;52.456;13.328;2023-03-23T05:30:53;10.60;47.80
47576;DHT22;33304;52.456;13.328;2023-03-23T05:33:22;10.60;47.10
47576;DHT22;33304;52.456;13.328;2023-03-23T05:35:54;10.70;47.90
47576;DHT22;33304;52.456;13.328;2023-03-23T05:38:28;10.70;48.10
47576;DHT22;33304;52.456;13.328;2023-03-23T05:40:58;10.80;48.10
47576;DHT22;33304;52.456;13.328;2023-03-23T05:43:34;10.70;50.20
47576;DHT22;33304;52.456;13.328;2023-03-23T05:46:21;10.70;51.20
47576;DHT22;33304;52.456;13.328;2023-03-23T05:48:49;10.70;53.80
47576;DHT22;33304;52.456;13.328;2023-03-23T05:51:20;10.60;54.90
47576;DHT22;33304;52.456;13.328;2023-03-23T05:53:49;10.60;58.30
47576;DHT22;33304;52.456;13.328;2023-03-23T05:56:17;10.60;58.50
47576;DHT22;33304;52.456;13.328;2023-03-23T05:59:11;10.60;62.70
47576;DHT22;33304;52.456;13.328;2023-03-23T06:01:41;10.60;65.90
47576;DHT22;33304;52.456;13.328;2023-03-23T06:04:08;10.60;69.00
47576;DHT22;33304;52.456;13.328;2023-03-23T06:06:44;10.60;74.50
47576;DHT22;33304;52.456;13.328;2023-03-23T06:09:13;10.50;81.30
47576;DHT22;33304;52.456;13.328;2023-03-23T06:11:57;10.50;91.80
47576;DHT22;33304;52.456;13.328;2023-03-23T06:14:59;10.50;93.10
47576;DHT22;33304;52.456;13.328;2023-03-23T06:17:46;10.50;97.30
47576;DHT22;33304;52.456;13.328;2023-03-23T06:20:13;10.50;99.90
47576;DHT22;33304;52.456;13.328;2023-03-23T06:22:41;10.50;99.90
47576;DHT22;33304;52.456;13.328;2023-03-23T06:25:19;10.50;99.90
47576;DHT22;33304;52.456;13.328;2023-03-23T06:27:47;10.40;99.90
47576;DHT22;33304;52.456;13.328;2023-03-23T06:30:15;10.40;99.90
47576;DHT22;33304;52.456;13.328;2023-03-23T06:32:42;10.40;99.90
47576;DHT22;33304;52.456;13.328;2023-03-23T06:35:19;10.40;99.90
47576;DHT22;33304;52.456;13.328;2023-03-23T06:38:11;10.50;99.90
47576;DHT22;33304;52.456;13.328;2023-03-23T06:40:53;10.50;99.90
47576;DHT22;33304;52.456;13.328;2023-03-23T06:43:20;10.50;99.90
47576;DHT22;33304;52.456;13.328;2023-03-23T06:45:58;10.50;99.90
47576;DHT22;33304;52.456;13.328;2023-03-23T06:48:40;10.50;99.90
47576;DHT22;33304;52.456;13.328;2023-03-23T06:51:11;10.50;99.90
47576;DHT22;33304;52.456;13.328;2023-03-23T06:53:40;10.50;99.90
47576;DHT22;33304;52.456;13.328;2023-03-23T06:56:12;10.60;99.90
47576;DHT22;33304;52.456;13.328;2023-03-23T06:58:42;10.50;99.90
47576;DHT22;33304;52.456;13.328;2023-03-23T07:01:11;10.50;99.90
47576;DHT22;33304;52.456;13.328;2023-03-23T07:03:42;10.50;99.90
47576;DHT22;33304;52.456;13.328;2023-03-23T07:06:11;10.50;99.90
47576;DHT22;33304;52.456;13.328;2023-03-23T07:08:47;10.50;99.90
47576;DHT22;33304;52.456;13.328;2023-03-23T07:11:20;10.50;99.90
47576;DHT22;33304;52.456;13.328;2023-03-23T07:13:47;10.60;99.90
47576;DHT22;33304;52.456;13.328;2023-03-23T07:16:16;10.60;99.90
47576;DHT22;33304;52.456;13.328;2023-03-23T07:18:44;10.50;99.90
47576;DHT22;33304;52.456;13.328;2023-03-23T07:21:12;10.50;99.90
47576;DHT22;33304;52.456;13.328;2023-03-23T07:23:40;10.50;99.90
47576;DHT22;33304;52.456;13.328;2023-03-23T07:26:15;10.50;99.90
47576;DHT22;33304;52.456;13.328;2023-03-23T07:28:54;10.60;99.90
47576;DHT22;33304;52.456;13.328;2023-03-23T07:31:35;10.60;99.90
47576;DHT22;33304;52.456;13.328;2023-03-23T07:34:03;10.60;99.90
47576;DHT22;33304;52.456;13.328;2023-03-23T07:36:40;10.70;99.90
47576;DHT22;33304;52.456;13.328;2023-03-23T07:39:09;10.70;99.90
47576;DHT22;33304;52.456;13.328;2023-03-23T07:41:36;10.60;99.90
47576;DHT22;33304;52.456;13.328;2023-03-23T07:44:15;10.70;99.90
47576;DHT22;33304;52.456;13.328;2023-03-23T07:46:43;10.60;99.90
47576;DHT22;33304;52.456;13.328;2023-03-23T07:49:15;10.60;99.90
47576;DHT22;33304;52.456;13.328;2023-03-23T07:51:49;10.70;99.90
47576;DHT22;33304;52.456;13.328;2023-03-23T07:54:16;10.70;99.90
47576;DHT22;33304;52.456;13.328;2023-03-23T07:56:56;10.80;99.90
47576;DHT22;33304;52.456;13.328;2023-03-23T07:59:28;10.80;99.90
47576;DHT22;33304;52.456;13.328;2023-03-23T08:01:57;10.90;99.90
47576;DHT22;33304;52.456;13.328;2023-03-23T08:04:24;10.90;99.90
47576;DHT22;33304;52.456;13.328;2023-03-23T08:07:10;10.90;99.90
47576;DHT22;33304;52.456;13.328;2023-03-23T08:09:51;10.90;99.90
47576;DHT22;33304;52.456;13.328;2023-03-23T08:12:36;11.00;99.90
47576;DHT22;33304;52.456;13.328;2023-03-23T08:15:26;11.00;99.90
47576;DHT22;33304;52.456;13.328;2023-03-23T08:18:14;11.10;99.90
47576;DHT22;33304;52.456;13.328;2023-03-23T08:21:01;11.10;99.90
47576;DHT22;33304;52.456;13.328;2023-03-23T08:23:57;11.10;97.70
47576;DHT22;33304;52.456;13.328;2023-03-23T08:26:37;11.10;96.30
47576;DHT22;33304;52.456;13.328;2023-03-23T08:29:27;11.20;92.40
47576;DHT22;33304;52.456;13.328;2023-03-23T08:32:09;11.20;93.40
47576;DHT22;33304;52.456;13.328;2023-03-23T08:35:04;11.20;93.90
47576;DHT22;33304;52.456;13.328;2023-03-23T08:37:54;11.10;92.40
47576;DHT22;33304;52.456;13.328;2023-03-23T08:40:40;11.20;93.30
47576;DHT22;33304;52.456;13.328;2023-03-23T08:43:29;11.20;92.50
47576;DHT22;33304;52.456;13.328;2023-03-23T08:46:23;11.20;92.30
47576;DHT22;33304;52.456;13.328;2023-03-23T08:49:10;11.30;90.70
47576;DHT22;33304;52.456;13.328;2023-03-23T08:51:48;11.50;87.10
47576;DHT22;33304;52.456;13.328;2023-03-23T08:54:36;11.40;81.70
47576;DHT22;33304;52.456;13.328;2023-03-23T08:57:18;11.50;81.70
47576;DHT22;33304;52.456;13.328;2023-03-23T08:59:58;11.60;80.70
47576;DHT22;33304;52.456;13.328;2023-03-23T09:02:42;11.60;79.80
47576;DHT22;33304;52.456;13.328;2023-03-23T09:05:20;11.60;75.70
47576;DHT22;33304;52.456;13.328;2023-03-23T09:08:13;11.70;74.60
47576;DHT22;33304;52.456;13.328;2023-03-23T09:10:40;11.80;74.70
47576;DHT22;33304;52.456;13.328;2023-03-23T09:13:07;11.90;73.50
47576;DHT22;33304;52.456;13.328;2023-03-23T09:15:34;12.00;71.00
47576;DHT22;33304;52.456;13.328;2023-03-23T09:18:02;12.00;70.50
47576;DHT22;33304;52.456;13.328;2023-03-23T09:20:32;12.00;65.90
47576;DHT22;33304;52.456;13.328;2023-03-23T09:22:59;12.00;65.40
47576;DHT22;33304;52.456;13.328;2023-03-23T09:25:27;11.90;65.60
47576;DHT22;33304;52.456;13.328;2023-03-23T09:27:57;12.00;66.00
47576;DHT22;33304;52.456;13.328;2023-03-23T09:30:26;12.20;62.60
47576;DHT22;33304;52.456;13.328;2023-03-23T09:32:54;12.30;61.60
47576;DHT22;33304;52.456;13.328;2023-03-23T09:35:22;12.40;62.00
47576;DHT22;33304;52.456;13.328;2023-03-23T09:37:51;12.40;57.30
47576;DHT22;33304;52.456;13.328;2023-03-23T09:40:21;12.40;58.90
47576;DHT22;33304;52.456;13.328;2023-03-23T09:43:00;12.60;56.80
47576;DHT22;33304;52.456;13.328;2023-03-23T09:45:35;12.70;54.60
47576;DHT22;33304;52.456;13.328;2023-03-23T09:48:19;12.90;54.50
47576;DHT22;33304;52.456;13.328;2023-03-23T09:50:52;12.90;52.60
47576;DHT22;33304;52.456;13.328;2023-03-23T09:53:24;13.00;50.40
47576;DHT22;33304;52.456;13.328;2023-03-23T09:55:54;13.10;49.50
47576;DHT22;33304;52.456;13.328;2023-03-23T09:58:24;13.20;46.10
47576;DHT22;33304;52.456;13.328;2023-03-23T10:01:00;13.40;46.30
47576;DHT22;33304;52.456;13.328;2023-03-23T10:03:33;13.40;44.00
47576;DHT22;33304;52.456;13.328;2023-03-23T10:06:03;13.30;44.50
47576;DHT22;33304;52.456;13.328;2023-03-23T10:08:32;13.30;44.00
47576;DHT22;33304;52.456;13.328;2023-03-23T10:11:03;13.50;42.30
47576;DHT22;33304;52.456;13.328;2023-03-23T10:13:47;13.50;42.80
47576;DHT22;33304;52.456;13.328;2023-03-23T10:16:19;13.40;42.20
47576;DHT22;33304;52.456;13.328;2023-03-23T10:18:51;13.40;41.50
47576;DHT22;33304;52.456;13.328;2023-03-23T10:21:23;13.60;42.20
47576;DHT22;33304;52.456;13.328;2023-03-23T10:23:56;13.60;39.80
47576;DHT22;33304;52.456;13.328;2023-03-23T10:26:33;13.60;39.50
47576;DHT22;33304;52.456;13.328;2023-03-23T10:29:11;13.70;38.30
47576;DHT22;33304;52.456;13.328;2023-03-23T10:31:42;13.70;39.00
47576;DHT22;33304;52.456;13.328;2023-03-23T10:34:14;13.90;38.90
47576;DHT22;33304;52.456;13.328;2023-03-23T10:36:53;13.80;38.00
47576;DHT22;33304;52.456;13.328;2023-03-23T10:39:25;13.80;38.10
47576;DHT22;33304;52.456;13.328;2023-03-23T10:41:53;13.80;37.50
47576;DHT22;33304;52.456;13.328;2023-03-23T10:44:22;13.90;38.80
47576;DHT22;33304;52.456;13.328;2023-03-23T10:46:56;14.00;36.20
47576;DHT22;33304;52.456;13.328;2023-03-23T10:49:27;14.00;35.50
47576;DHT22;33304;52.456;13.328;2023-03-23T10:52:00;14.10;35.30
47576;DHT22;33304;52.456;13.328;2023-03-23T10:54:35;14.00;35.20
47576;DHT22;33304;52.456;13.328;2023-03-23T10:57:13;14.10;35.30
47576;DHT22;33304;52.456;13.328;2023-03-23T10:59:40;14.10;33.70
47576;DHT22;33304;52.456;13.328;2023-03-23T11:02:14;14.10;34.80
47576;DHT22;33304;52.456;13.328;2023-03-23T11:04:45;13.90;33.10
47576;DHT22;33304;52.456;13.328;2023-03-23T11:07:26;13.90;34.60
47576;DHT22;33304;52.456;13.328;2023-03-23T11:09:57;14.10;33.40
47576;DHT22;33304;52.456;13.328;2023-03-23T11:12:33;14.10;33.30
47576;DHT22;33304;52.456;13.328;2023-03-23T11:15:23;14.20;33.00
47576;DHT22;33304;52.456;13.328;2023-03-23T11:17:59;14.20;31.80
47576;DHT22;33304;52.456;13.328;2023-03-23T11:20:28;14.10;31.80
47576;DHT22;33304;52.456;13.328;2023-03-23T11:22:56;14.30;32.00
47576;DHT22;33304;52.456;13.328;2023-03-23T11:25:25;14.30;30.70
47576;DHT22;33304;52.456;13.328;2023-03-23T11:27:53;14.40;30.30
47576;DHT22;33304;52.456;13.328;2023-03-23T11:30:24;14.30;30.20
47576;DHT22;33304;52.456;13.328;2023-03-23T11:32:54;14.40;31.90
47576;DHT22;33304;52.456;13.328;2023-03-23T11:35:26;14.40;30.20
47576;DHT22;33304;52.456;13.328;2023-03-23T11:37:55;14.50;29.80
47576;DHT22;33304;52.456;13.328;2023-03-23T11:40:25;14.50;29.20
47576;DHT22;33304;52.456;13.328;2023-03-23T11:42:58;14.60;29.20
47576;DHT22;33304;52.456;13.328;2023-03-23T11:45:32;14.60;29.00
47576;DHT22;33304;52.456;13.328;2023-03-23T11:48:12;14.70;28.40
47576;DHT22;33304;52.456;13.328;2023-03-23T11:50:49;14.70;27.30
47576;DHT22;33304;52.456;13.328;2023-03-23T11:53:25;14.70;28.00
47576;DHT22;33304;52.456;13.328;2023-03-23T11:56:09;14.90;27.70
47576;DHT22;33304;52.456;13.328;2023-03-23T11:58:38;15.00;27.10
47576;DHT22;33304;52.456;13.328;2023-03-23T12:01:09;15.00;27.50
47576;DHT22;33304;52.456;13.328;2023-03-23T12:04:00;15.10;26.70
47576;DHT22;33304;52.456;13.328;2023-03-23T12:06:37;14.90;25.40
47576;DHT22;33304;52.456;13.328;2023-03-23T12:09:16;15.00;25.90
47576;DHT22;33304;52.456;13.328;2023-03-23T12:11:54;15.00;25.50
47576;DHT22;33304;52.456;13.328;2023-03-23T12:14:30;15.10;25.60
47576;DHT22;33304;52.456;13.328;2023-03-23T12:17:08;15.00;25.70
47576;DHT22;33304;52.456;13.328;2023-03-23T12:19:44;15.10;25.60
47576;DHT22;33304;52.456;13.328;2023-03-23T12:22:28;15.10;25.60
47576;DHT22;33304;52.456;13.328;2023-03-23T12:25:05;15.00;25.50
47576;DHT22;33304;52.456;13.328;2023-03-23T12:27:42;15.00;25.50
47576;DHT22;33304;52.456;13.328;2023-03-23T12:30:27;15.10;25.60
47576;DHT22;33304;52.456;13.328;2023-03-23T12:33:11;15.10;25.60
47576;DHT22;33304;52.456;13.328;2023-03-23T12:35:48;15.30;24.50
47576;DHT22;33304;52.456;13.328;2023-03-23T12:38:31;15.10;25.60
47576;DHT22;33304;52.456;13.328;2023-03-23T12:41:07;15.00;25.50
47576;DHT22;33304;52.456;13.328;2023-03-23T12:43:49;15.20;24.80
47576;DHT22;33304;52.456;13.328;2023-03-23T12:46:27;15.30;24.10
47576;DHT22;33304;52.456;13.328;2023-03-23T12:49:00;15.40;24.90
47576;DHT22;33304;52.456;13.328;2023-03-23T12:51:33;15.30;23.70
47576;DHT22;33304;52.456;13.328;2023-03-23T12:54:07;15.40;22.70
47576;DHT22;33304;52.456;13.328;2023-03-23T12:56:41;15.40;23.60
47576;DHT22;33304;52.456;13.328;2023-03-23T12:59:16;15.50;23.40
47576;DHT22;33304;52.456;13.328;2023-03-23T13:01:48;15.70;22.90
47576;DHT22;33304;52.456;13.328;2023-03-23T13:04:29;15.80;22.00
47576;DHT22;33304;52.456;13.328;2023-03-23T13:06:59;16.10;21.90
47576;DHT22;33304;52.456;13.328;2023-03-23T13:09:34;16.40;21.00
47576;DHT22;33304;52.456;13.328;2023-03-23T13:12:04;16.60;20.40
47576;DHT22;33304;52.456;13.328;2023-03-23T13:14:40;17.10;19.50
47576;DHT22;33304;52.456;13.328;2023-03-23T13:17:18;16.70;18.90
47576;DHT22;33304;52.456;13.328;2023-03-23T13:20:22;16.80;18.40
47576;DHT22;33304;52.456;13.328;2023-03-23T13:22:56;16.90;17.70
47576;DHT22;33304;52.456;13.328;2023-03-23T13:25:35;16.80;17.10
47576;DHT22;33304;52.456;13.328;2023-03-23T13:28:04;16.80;17.10
47576;DHT22;33304;52.456;13.328;2023-03-23T13:30:33;17.10;16.30
47576;DHT22;33304;52.456;13.328;2023-03-23T13:33:04;17.10;17.30
47576;DHT22;33304;52.456;13.328;2023-03-23T13:35:35;17.60;15.30
47576;DHT22;33304;52.456;13.328;2023-03-23T13:38:13;17.40;15.70
47576;DHT22;33304;52.456;13.328;2023-03-23T13:40:44;18.20;13.90
47576;DHT22;33304;52.456;13.328;2023-03-23T13:43:12;17.80;12.70
47576;DHT22;33304;52.456;13.328;2023-03-23T13:45:46;17.60;13.40
47576;DHT22;33304;52.456;13.328;2023-03-23T13:48:21;17.40;14.10
47576;DHT22;33304;52.456;13.328;2023-03-23T13:50:53;17.80;12.90
47576;DHT22;33304;52.456;13.328;2023-03-23T13:53:24;17.40;14.30
47576;DHT22;33304;52.456;13.328;2023-03-23T13:56:06;17.40;14.00
47576;DHT22;33304;52.456;13.328;2023-03-23T13:58:45;18.30;11.70
47576;DHT22;33304;52.456;13.328;2023-03-23T14:01:17;18.80;10.10
47576;DHT22;33304;52.456;13.328;2023-03-23T14:03:48;19.10;8.70
47576;DHT22;33304;52.456;13.328;2023-03-23T14:06:19;19.70;7.80
47576;DHT22;33304;52.456;13.328;2023-03-23T14:09:12;19.60;8.20
47576;DHT22;33304;52.456;13.328;2023-03-23T14:11:49;19.50;8.20
47576;DHT22;33304;52.456;13.328;2023-03-23T14:14:23;18.70;8.40
47576;DHT22;33304;52.456;13.328;2023-03-23T14:16:53;18.10;10.00
47576;DHT22;33304;52.456;13.328;2023-03-23T14:19:38;17.80;11.10
47576;DHT22;33304;52.456;13.328;2023-03-23T14:22:17;17.40;11.70
47576;DHT22;33304;52.456;13.328;2023-03-23T14:24:44;17.40;11.40
47576;DHT22;33304;52.456;13.328;2023-03-23T14:27:14;17.10;12.40
47576;DHT22;33304;52.456;13.328;2023-03-23T14:29:41;16.70;13.10
47576;DHT22;33304;52.456;13.328;2023-03-23T14:32:14;16.50;14.10
47576;DHT22;33304;52.456;13.328;2023-03-23T14:34:43;16.40;14.40
47576;DHT22;33304;52.456;13.328;2023-03-23T14:37:12;16.30;15.00
47576;DHT22;33304;52.456;13.328;2023-03-23T14:39:40;16.00;16.60
47576;DHT22;33304;52.456;13.328;2023-03-23T14:42:13;16.00;16.50
47576;DHT22;33304;52.456;13.328;2023-03-23T14:44:42;16.00;16.50
47576;DHT22;33304;52.456;13.328;2023-03-23T14:47:16;16.00;17.60
47576;DHT22;33304;52.456;13.328;2023-03-23T14:49:52;15.70;18.70
47576;DHT22;33304;52.456;13.328;2023-03-23T14:52:22;15.70;19.30
47576;DHT22;33304;52.456;13.328;2023-03-23T14:54:50;15.60;21.20
47576;DHT22;33304;52.456;13.328;2023-03-23T14:57:26;15.60;19.80
47576;DHT22;33304;52.456;13.328;2023-03-23T14:59:54;16.00;19.90
47576;DHT22;33304;52.456;13.328;2023-03-23T15:02:26;16.90;17.20
47576;DHT22;33304;52.456;13.328;2023-03-23T15:04:56;17.10;17.30
47576;DHT22;33304;52.456;13.328;2023-03-23T15:07:31;16.70;17.00
47576;DHT22;33304;52.456;13.328;2023-03-23T15:09:59;16.70;17.00
47576;DHT22;33304;52.456;13.328;2023-03-23T15:12:29;16.80;17.10
47576;DHT22;33304;52.456;13.328;2023-03-23T15:14:59;17.60;15.60
47576;DHT22;33304;52.456;13.328;2023-03-23T15:17:29;18.30;13.90
47576;DHT22;33304;52.456;13.328;2023-03-23T15:19:58;18.20;13.70
47576;DHT22;33304;52.456;13.328;2023-03-23T15:22:33;18.70;12.70
47576;DHT22;33304;52.456;13.328;2023-03-23T15:25:03;18.80;13.00
47576;DHT22;33304;52.456;13.328;2023-03-23T15:27:41;18.70;11.50
47576;DHT22;33304;52.456;13.328;2023-03-23T15:30:13;19.30;8.80
47576;DHT22;33304;52.456;13.328;2023-03-23T15:32:44;18.80;8.50
47576;DHT22;33304;52.456;13.328;2023-03-23T15:35:13;18.90;8.20
47576;DHT22;33304;52.456;13.328;2023-03-23T15:37:43;19.10;7.80
47576;DHT22;33304;52.456;13.328;2023-03-23T15:40:15;18.50;8.30
47576;DHT22;33304;52.456;13.328;2023-03-23T15:42:42;17.90;7.90
47576;DHT22;33304;52.456;13.328;2023-03-23T15:45:22;17.70;8.50
47576;DHT22;33304;52.456;13.328;2023-03-23T15:47:52;17.40;9.60
47576;DHT22;33304;52.456;13.328;2023-03-23T15:50:33;17.10;11.40
47576;DHT22;33304;52.456;13.328;2023-03-23T15:53:07;17.10;10.80
47576;DHT22;33304;52.456;13.328;2023-03-23T15:55:41;16.90;11.60
47576;DHT22;33304;52.456;13.328;2023-03-23T15:58:11;16.90;11.40
47576;DHT22;33304;52.456;13.328;2023-03-23T16:00:40;16.90;11.20